Wheatland, North Dakota
Current Conditions -  °F | °C
As of 11:53 AM on Thursday 27 Nov 2014 (Local Time) from KFAR Reporting Station
Clear Clear  
Wind Chill: -11°   Ceiling: Unl
Heat Index:   Visibility: 10mi
Dew Point: -6°   Wind: 7mph
Humidity: 69%   Direction: 130°SE
Pressure: 30.44"   Gusts: NA
Location:  46.91°N, 97.34°W
Report Text: KFAR 271753Z 13006KT 10SM CLR M17/M21 A3044 RMK AO2 SLP338 T11671211 11167 21250 58026
Loading
Personal Weather Stations






























Interactive Weather Map New forecast layout! Learn more

10-Day Weather Forecast

Advertisements
Track Severe Weather on mobile